createdAt,value
2023-05-12T00:01:16.534Z,9.57
2023-05-12T00:03:43.621Z,9.49
2023-05-12T00:06:10.551Z,9.38
2023-05-12T00:08:37.324Z,9.43
2023-05-12T00:11:04.238Z,9.42
2023-05-12T00:13:30.971Z,9.47
2023-05-12T00:15:59.374Z,9.46
2023-05-12T00:18:28.385Z,9.44
2023-05-12T00:20:55.730Z,9.43
2023-05-12T00:23:22.845Z,9.45
2023-05-12T00:25:50.375Z,9.44
2023-05-12T00:28:18.699Z,9.44
2023-05-12T00:30:45.567Z,9.31
2023-05-12T00:33:12.412Z,9.43
2023-05-12T00:35:39.133Z,9.47
2023-05-12T00:38:05.812Z,9.45
2023-05-12T00:40:32.577Z,9.44
2023-05-12T00:42:59.300Z,9.43
2023-05-12T00:45:26.580Z,9.37
2023-05-12T00:47:53.829Z,9.30
2023-05-12T00:50:21.503Z,9.32
2023-05-12T00:52:49.628Z,9.29
2023-05-12T00:55:16.477Z,9.21
2023-05-12T00:57:43.558Z,9.25
2023-05-12T01:00:10.938Z,9.26
2023-05-12T01:02:37.913Z,9.31
2023-05-12T01:05:05.792Z,9.25
2023-05-12T01:07:33.237Z,9.28
2023-05-12T01:10:00.110Z,9.26
2023-05-12T01:12:27.285Z,9.26
2023-05-12T01:14:55.958Z,9.26
2023-05-12T01:17:28.895Z,9.27
2023-05-12T01:20:00.718Z,9.16
2023-05-12T01:22:31.364Z,9.17
2023-05-12T01:25:00.219Z,9.20
2023-05-12T01:27:27.695Z,9.20
2023-05-12T01:29:56.568Z,9.24
2023-05-12T01:32:23.670Z,9.09
2023-05-12T01:34:50.813Z,9.16
2023-05-12T01:37:17.560Z,9.20
2023-05-12T01:39:44.549Z,9.22
2023-05-12T01:42:11.327Z,9.13
2023-05-12T01:44:38.124Z,9.14
2023-05-12T01:47:05.237Z,9.16
2023-05-12T01:49:31.946Z,9.13
2023-05-12T01:51:58.665Z,9.13
2023-05-12T01:54:25.348Z,9.07
2023-05-12T01:56:52.114Z,9.05
2023-05-12T01:59:18.798Z,9.05
2023-05-12T02:01:45.558Z,9.06
2023-05-12T02:04:12.426Z,9.01
2023-05-12T02:06:39.281Z,8.96
2023-05-12T02:09:06.123Z,8.94
2023-05-12T02:11:32.819Z,8.99
2023-05-12T02:13:59.624Z,9.00
2023-05-12T02:16:26.325Z,8.91
2023-05-12T02:18:53.089Z,8.92
2023-05-12T02:21:19.912Z,8.95
2023-05-12T02:23:46.631Z,8.97
2023-05-12T02:26:13.365Z,8.99
2023-05-12T02:28:40.109Z,8.99
2023-05-12T02:31:06.854Z,9.02
2023-05-12T02:33:33.656Z,9.08
2023-05-12T02:36:00.438Z,9.02
2023-05-12T02:38:27.613Z,8.99
2023-05-12T02:40:54.556Z,8.97
2023-05-12T02:43:21.285Z,8.97
2023-05-12T02:45:48.012Z,9.00
2023-05-12T02:48:14.746Z,8.99
2023-05-12T02:50:41.875Z,8.97
2023-05-12T02:53:08.744Z,8.96
2023-05-12T02:55:35.472Z,8.95
2023-05-12T02:58:02.285Z,8.99
2023-05-12T03:00:28.999Z,9.01
2023-05-12T03:02:55.816Z,8.98
2023-05-12T03:05:22.807Z,8.93
2023-05-12T03:07:49.906Z,8.99
2023-05-12T03:10:19.877Z,9.02
2023-05-12T03:12:46.923Z,9.02
2023-05-12T03:15:13.657Z,9.07
2023-05-12T03:17:40.592Z,9.05
2023-05-12T03:20:07.902Z,9.03
2023-05-12T03:22:35.100Z,8.99
2023-05-12T03:25:01.950Z,8.99
2023-05-12T03:27:28.745Z,8.99
2023-05-12T03:29:55.643Z,8.99
2023-05-12T03:32:22.424Z,8.99
2023-05-12T03:34:49.214Z,8.98
2023-05-12T03:37:16.428Z,9.00
2023-05-12T03:39:43.282Z,8.97
2023-05-12T03:42:09.980Z,9.00
2023-05-12T03:44:36.776Z,8.98
2023-05-12T03:47:03.676Z,8.98
2023-05-12T03:49:30.492Z,8.96
2023-05-12T03:51:57.236Z,8.95
2023-05-12T03:54:24.190Z,8.98
2023-05-12T03:56:53.026Z,8.98
2023-05-12T03:59:19.752Z,8.99
2023-05-12T04:01:46.560Z,9.00
2023-05-12T04:04:13.316Z,8.99
2023-05-12T04:06:40.098Z,8.98
2023-05-12T04:09:06.864Z,9.00
2023-05-12T04:11:33.588Z,8.99
2023-05-12T04:14:00.312Z,9.00
2023-05-12T04:16:27.046Z,9.26
2023-05-12T04:18:53.920Z,9.10
2023-05-12T04:21:21.084Z,8.99
2023-05-12T04:23:47.817Z,8.97
2023-05-12T04:26:14.438Z,8.99
2023-05-12T04:28:41.255Z,9.00
2023-05-12T04:31:07.869Z,9.04
2023-05-12T04:33:34.566Z,9.09
2023-05-12T04:36:01.540Z,9.08
2023-05-12T04:38:28.306Z,9.07
2023-05-12T04:41:00.021Z,9.09
2023-05-12T04:45:59.314Z,9.02
2023-05-12T04:48:26.881Z,9.16
2023-05-12T04:50:54.737Z,9.22
2023-05-12T04:53:21.351Z,9.27
2023-05-12T04:55:50.175Z,9.33
2023-05-12T04:58:17.072Z,9.35
2023-05-12T05:00:44.087Z,9.27
2023-05-12T05:03:11.192Z,9.42
2023-05-12T05:05:37.973Z,9.55
2023-05-12T05:08:04.727Z,9.57
2023-05-12T05:10:31.493Z,9.51
2023-05-12T05:12:58.066Z,9.60
2023-05-12T05:15:24.990Z,9.67
2023-05-12T05:17:51.762Z,9.68
2023-05-12T05:20:19.715Z,9.76
2023-05-12T05:22:46.525Z,9.69
2023-05-12T05:25:14.254Z,9.66
2023-05-12T05:27:41.108Z,9.70
2023-05-12T05:30:09.167Z,9.75
2023-05-12T05:32:37.199Z,9.65
2023-05-12T05:35:04.065Z,9.74
2023-05-12T05:37:30.842Z,9.71
2023-05-12T05:39:57.826Z,9.79
2023-05-12T05:42:24.641Z,9.93
2023-05-12T05:44:51.443Z,10.03
2023-05-12T05:47:18.182Z,10.04
2023-05-12T05:49:44.870Z,10.07
2023-05-12T05:52:11.496Z,9.98
2023-05-12T05:54:38.212Z,9.97
2023-05-12T05:57:05.224Z,9.95
2023-05-12T05:59:32.325Z,9.99
2023-05-12T06:01:59.279Z,9.98
2023-05-12T06:04:26.239Z,9.98
2023-05-12T06:06:53.001Z,10.00
2023-05-12T06:09:19.779Z,9.98
2023-05-12T06:11:46.431Z,9.95
2023-05-12T06:14:13.189Z,9.99
2023-05-12T06:16:39.904Z,9.98
2023-05-12T06:19:06.912Z,10.04
2023-05-12T06:21:33.749Z,9.97
2023-05-12T06:24:00.541Z,9.98
2023-05-12T06:26:27.197Z,10.11
2023-05-12T06:28:53.913Z,10.22
2023-05-12T06:31:20.659Z,10.21
2023-05-12T06:33:47.627Z,10.31
2023-05-12T06:36:14.300Z,10.24
2023-05-12T06:38:41.021Z,10.29
2023-05-12T06:41:07.882Z,10.19
2023-05-12T06:43:34.626Z,10.20
2023-05-12T06:46:02.063Z,10.35
2023-05-12T06:48:28.908Z,10.41
2023-05-12T06:50:55.669Z,10.49
2023-05-12T06:53:24.076Z,10.31
2023-05-12T06:55:53.774Z,10.20
2023-05-12T06:58:22.252Z,10.31
2023-05-12T07:00:49.007Z,10.46
2023-05-12T07:03:16.129Z,10.45
2023-05-12T07:05:43.017Z,10.54
2023-05-12T07:08:09.911Z,10.63
2023-05-12T07:10:38.094Z,10.64
2023-05-12T07:13:04.904Z,10.73
2023-05-12T07:15:32.867Z,10.64
2023-05-12T07:17:59.985Z,10.64
2023-05-12T07:20:27.209Z,10.86
2023-05-12T07:22:54.944Z,10.91
2023-05-12T07:25:22.150Z,11.05
2023-05-12T07:27:50.051Z,11.26
2023-05-12T07:30:17.245Z,11.30
2023-05-12T07:32:44.103Z,11.35
2023-05-12T07:35:10.940Z,11.57
2023-05-12T07:37:38.346Z,11.73
2023-05-12T07:40:05.635Z,11.95
2023-05-12T07:42:32.350Z,11.84
2023-05-12T07:44:59.069Z,11.69
2023-05-12T07:47:26.104Z,11.60
2023-05-12T07:49:52.784Z,11.96
2023-05-12T07:52:21.918Z,12.37
2023-05-12T07:54:48.753Z,12.66
2023-05-12T07:57:15.609Z,12.50
2023-05-12T07:59:42.980Z,12.75
2023-05-12T08:02:09.902Z,12.95
2023-05-12T08:04:36.702Z,13.06
2023-05-12T08:07:03.613Z,13.41
2023-05-12T08:09:30.340Z,13.57
2023-05-12T08:11:57.127Z,13.22
2023-05-12T08:14:25.746Z,13.36
2023-05-12T08:16:52.730Z,13.33
2023-05-12T08:19:19.561Z,13.44
2023-05-12T08:21:46.576Z,13.45
2023-05-12T08:24:13.393Z,13.25
2023-05-12T08:26:40.459Z,13.00
2023-05-12T08:29:08.856Z,13.05
2023-05-12T08:31:35.670Z,13.40
2023-05-12T08:34:10.209Z,13.53
2023-05-12T08:36:38.755Z,13.39
2023-05-12T08:39:06.067Z,13.58
2023-05-12T08:41:38.857Z,13.98
2023-05-12T08:44:06.556Z,13.66
2023-05-12T08:46:33.812Z,13.75
2023-05-12T08:49:04.405Z,13.87
2023-05-12T08:51:32.972Z,13.65
2023-05-12T08:53:59.656Z,13.82
2023-05-12T08:58:57.005Z,13.85
2023-05-12T09:01:25.041Z,13.60
2023-05-12T09:03:53.152Z,13.72
2023-05-12T09:06:20.291Z,13.85
2023-05-12T09:08:47.151Z,14.12
2023-05-12T09:11:14.133Z,14.29
2023-05-12T09:14:06.514Z,13.91
2023-05-12T09:16:40.270Z,13.86
2023-05-12T09:19:07.424Z,14.25
2023-05-12T09:21:34.448Z,14.48
2023-05-12T09:24:09.265Z,14.41
2023-05-12T09:26:52.977Z,14.48
2023-05-12T09:29:30.718Z,14.54
2023-05-12T09:32:00.010Z,14.68
2023-05-12T09:34:31.928Z,14.81
2023-05-12T09:37:04.094Z,15.05
2023-05-12T09:39:30.835Z,15.15
2023-05-12T09:41:57.577Z,15.49
2023-05-12T09:44:25.230Z,14.93
2023-05-12T09:46:52.885Z,14.98
2023-05-12T09:49:21.178Z,15.39
2023-05-12T09:51:53.000Z,15.55
2023-05-12T09:54:26.819Z,15.01
2023-05-12T09:56:58.496Z,15.36
2023-05-12T09:59:31.958Z,15.49
2023-05-12T10:02:00.987Z,15.39
2023-05-12T10:04:29.261Z,15.51
2023-05-12T10:06:56.494Z,15.44
2023-05-12T10:09:25.816Z,15.68
2023-05-12T10:11:53.945Z,15.43
2023-05-12T10:14:22.668Z,15.09
2023-05-12T10:16:50.086Z,15.18
2023-05-12T10:19:17.784Z,15.56
2023-05-12T10:21:47.320Z,15.25
2023-05-12T10:24:17.327Z,15.22
2023-05-12T10:26:44.862Z,15.06
2023-05-12T10:29:12.642Z,15.04
2023-05-12T10:31:39.746Z,15.21
2023-05-12T10:34:06.973Z,15.23
2023-05-12T10:36:48.040Z,15.19
2023-05-12T10:39:17.647Z,15.51
2023-05-12T10:41:44.548Z,15.50
2023-05-12T10:44:11.395Z,15.55
2023-05-12T10:46:38.210Z,15.40
2023-05-12T10:49:10.232Z,15.73
2023-05-12T10:52:00.022Z,15.66
2023-05-12T10:54:26.863Z,15.30
2023-05-12T10:56:58.695Z,15.07
2023-05-12T10:59:29.563Z,14.93
2023-05-12T11:02:03.948Z,15.02
2023-05-12T11:04:59.100Z,15.22
2023-05-12T11:07:28.693Z,15.28
2023-05-12T11:10:01.664Z,15.09
2023-05-12T11:12:32.886Z,15.11
2023-05-12T11:15:01.646Z,15.18
2023-05-12T11:17:28.635Z,15.23
2023-05-12T11:19:55.849Z,14.98
2023-05-12T11:22:23.456Z,14.97
2023-05-12T11:24:51.291Z,15.10
2023-05-12T11:27:19.576Z,14.85
2023-05-12T11:29:59.016Z,14.99
2023-05-12T11:32:26.147Z,14.83
2023-05-12T11:34:53.249Z,14.99
2023-05-12T11:37:21.474Z,14.95
2023-05-12T11:39:48.480Z,15.17
2023-05-12T11:42:17.702Z,15.28
2023-05-12T11:44:50.421Z,15.35
2023-05-12T11:47:19.227Z,15.07
2023-05-12T11:49:49.975Z,14.66
2023-05-12T11:52:17.609Z,14.72
2023-05-12T11:54:57.854Z,15.17
2023-05-12T11:57:28.957Z,15.23
2023-05-12T12:00:07.761Z,15.51
2023-05-12T12:02:36.057Z,15.72
2023-05-12T12:05:03.430Z,15.93
2023-05-12T12:07:31.885Z,16.09
2023-05-12T12:09:59.191Z,15.89
2023-05-12T12:12:25.949Z,15.80
2023-05-12T12:14:52.663Z,15.83
2023-05-12T12:17:22.175Z,16.14
2023-05-12T12:19:48.902Z,15.99
2023-05-12T12:22:15.792Z,15.75
2023-05-12T12:24:42.512Z,15.86
2023-05-12T12:27:09.558Z,16.08
2023-05-12T12:29:36.377Z,16.30
2023-05-12T12:32:03.436Z,16.10
2023-05-12T12:34:30.222Z,15.98
2023-05-12T12:36:56.942Z,16.37
2023-05-12T12:39:23.746Z,15.65
2023-05-12T12:41:50.444Z,15.67
2023-05-12T12:44:17.821Z,15.72
2023-05-12T12:46:44.652Z,16.03
2023-05-12T12:49:11.544Z,15.76
2023-05-12T12:51:45.664Z,16.09
2023-05-12T12:54:13.953Z,16.26
2023-05-12T12:56:40.962Z,16.10
2023-05-12T12:59:07.712Z,16.07
2023-05-12T13:01:35.038Z,16.21
2023-05-12T13:04:02.011Z,16.01
2023-05-12T13:06:29.442Z,16.05
2023-05-12T13:08:56.682Z,15.96
2023-05-12T13:11:23.530Z,15.94
2023-05-12T13:13:50.403Z,16.02
2023-05-12T13:16:17.218Z,15.89
2023-05-12T13:18:44.186Z,16.04
2023-05-12T13:21:10.951Z,15.92
2023-05-12T13:23:37.652Z,15.91
2023-05-12T13:26:04.766Z,15.79
2023-05-12T13:28:31.589Z,15.98
2023-05-12T13:30:58.342Z,15.94
2023-05-12T13:33:25.233Z,16.03
2023-05-12T13:35:51.901Z,16.58
2023-05-12T13:38:20.010Z,16.67
2023-05-12T13:40:46.887Z,16.82
2023-05-12T13:43:13.715Z,17.16
2023-05-12T13:45:40.408Z,16.98
2023-05-12T13:48:07.250Z,16.90
2023-05-12T13:50:34.489Z,16.38
2023-05-12T13:53:01.366Z,16.70
2023-05-12T13:55:28.028Z,16.69
2023-05-12T13:57:54.824Z,16.67
2023-05-12T14:00:22.141Z,16.65
2023-05-12T14:02:49.073Z,16.93
2023-05-12T14:05:16.058Z,16.93
2023-05-12T14:07:42.864Z,16.63
2023-05-12T14:10:10.498Z,16.85
2023-05-12T14:12:37.221Z,17.05
2023-05-12T14:15:19.803Z,17.06
2023-05-12T14:17:51.257Z,17.17
2023-05-12T14:20:18.078Z,17.44
2023-05-12T14:22:44.780Z,16.99
2023-05-12T14:25:11.514Z,16.83
2023-05-12T14:27:38.306Z,16.93
2023-05-12T14:30:06.301Z,16.92
2023-05-12T14:32:34.430Z,16.83
2023-05-12T14:35:01.198Z,16.57
2023-05-12T14:37:27.947Z,17.07
2023-05-12T14:39:56.781Z,17.34
2023-05-12T14:42:23.833Z,17.19
2023-05-12T14:44:50.655Z,16.87
2023-05-12T14:47:17.407Z,17.06
2023-05-12T14:49:45.674Z,16.61
2023-05-12T14:52:12.667Z,16.61
2023-05-12T14:54:39.351Z,16.27
2023-05-12T14:57:06.248Z,16.23
2023-05-12T14:59:32.963Z,16.39
2023-05-12T15:01:59.867Z,16.13
2023-05-12T15:04:27.668Z,16.23
2023-05-12T15:06:54.375Z,16.37
2023-05-12T15:09:21.079Z,16.25
2023-05-12T15:11:49.402Z,16.42
2023-05-12T15:14:16.114Z,16.35
2023-05-12T15:16:42.927Z,16.73
2023-05-12T15:19:09.768Z,16.79
2023-05-12T15:21:36.870Z,16.67
2023-05-12T15:24:04.016Z,16.86
2023-05-12T15:26:34.313Z,16.27
2023-05-12T15:29:02.479Z,16.16
2023-05-12T15:31:30.070Z,16.06
2023-05-12T15:33:57.654Z,15.33
2023-05-12T15:36:24.452Z,15.55
2023-05-12T15:38:51.201Z,15.45
2023-05-12T15:41:17.934Z,15.28
2023-05-12T15:43:44.822Z,15.30
2023-05-12T15:46:11.945Z,15.44
2023-05-12T15:48:39.666Z,15.24
2023-05-12T15:51:06.947Z,15.25
2023-05-12T15:53:34.051Z,15.35
2023-05-12T15:56:02.060Z,15.40
2023-05-12T15:58:29.290Z,15.41
2023-05-12T16:00:56.306Z,15.20
2023-05-12T16:03:23.891Z,15.21
2023-05-12T16:05:50.938Z,14.97
2023-05-12T16:08:17.995Z,14.64
2023-05-12T16:10:44.899Z,14.90
2023-05-12T16:13:11.647Z,14.82
2023-05-12T16:15:38.394Z,14.61
2023-05-12T16:18:07.525Z,14.61
2023-05-12T16:20:36.083Z,14.46
2023-05-12T16:23:02.913Z,14.19
2023-05-12T16:25:29.658Z,14.32
2023-05-12T16:27:56.330Z,14.34
2023-05-12T16:30:23.179Z,14.21
2023-05-12T16:32:49.946Z,14.01
2023-05-12T16:35:16.719Z,13.87
2023-05-12T16:37:43.524Z,13.87
2023-05-12T16:40:10.569Z,13.73
2023-05-12T16:42:37.295Z,13.68
2023-05-12T16:45:04.194Z,13.65
2023-05-12T16:47:31.570Z,13.69
2023-05-12T16:49:59.314Z,13.64
2023-05-12T16:52:27.053Z,13.62
2023-05-12T16:54:56.139Z,13.49
2023-05-12T16:57:23.371Z,13.59
2023-05-12T16:59:50.317Z,13.46
2023-05-12T17:02:17.031Z,13.41
2023-05-12T17:04:44.814Z,13.48
2023-05-12T17:07:11.546Z,13.28
2023-05-12T17:09:38.430Z,13.36
2023-05-12T17:12:06.925Z,13.26
2023-05-12T17:14:35.101Z,13.11
2023-05-12T17:17:02.433Z,13.15
2023-05-12T17:19:29.541Z,13.11
2023-05-12T17:21:56.365Z,13.24
2023-05-12T17:24:23.165Z,13.18
2023-05-12T17:26:49.975Z,12.99
2023-05-12T17:29:17.088Z,13.08
2023-05-12T17:31:43.978Z,13.09
2023-05-12T17:34:10.846Z,13.04
2023-05-12T17:36:37.577Z,12.99
2023-05-12T17:39:04.348Z,13.04
2023-05-12T17:41:31.058Z,13.05
2023-05-12T17:43:57.845Z,13.07
2023-05-12T17:46:24.646Z,12.97
2023-05-12T17:48:51.429Z,13.00
2023-05-12T17:51:18.184Z,12.86
2023-05-12T17:53:44.845Z,12.89
2023-05-12T17:56:11.676Z,12.89
2023-05-12T17:58:38.635Z,12.79
2023-05-12T18:01:05.556Z,12.74
2023-05-12T18:03:32.487Z,12.67
2023-05-12T18:05:59.532Z,12.72
2023-05-12T18:08:27.313Z,12.71
2023-05-12T18:10:54.146Z,12.73
2023-05-12T18:13:20.809Z,12.71
2023-05-12T18:15:49.392Z,12.58
2023-05-12T18:18:16.116Z,12.63
2023-05-12T18:20:42.850Z,12.54
2023-05-12T18:23:09.534Z,12.42
2023-05-12T18:25:36.364Z,12.46
2023-05-12T18:28:03.129Z,12.41
2023-05-12T18:30:29.904Z,12.37
2023-05-12T18:32:56.672Z,12.28
2023-05-12T18:35:23.878Z,12.27
2023-05-12T18:37:50.736Z,12.24
2023-05-12T18:40:17.567Z,12.19
2023-05-12T18:42:44.261Z,12.17
2023-05-12T18:45:11.466Z,12.23
2023-05-12T18:47:38.875Z,12.27
2023-05-12T18:50:05.982Z,12.26
2023-05-12T18:52:32.697Z,12.29
2023-05-12T18:54:59.828Z,12.28
2023-05-12T18:57:26.848Z,12.20
2023-05-12T18:59:53.715Z,12.16
2023-05-12T19:02:20.863Z,12.24
2023-05-12T19:04:47.954Z,12.18
2023-05-12T19:07:15.803Z,12.21
2023-05-12T19:09:43.493Z,12.18
2023-05-12T19:12:11.790Z,12.08
2023-05-12T19:14:43.279Z,12.06
2023-05-12T19:17:10.381Z,11.99
2023-05-12T19:19:37.179Z,11.99
2023-05-12T19:22:04.510Z,12.03
2023-05-12T19:24:31.446Z,11.97
2023-05-12T19:26:58.387Z,11.95
2023-05-12T19:29:25.416Z,11.95
2023-05-12T19:31:53.127Z,11.97
2023-05-12T19:34:20.265Z,11.87
2023-05-12T19:36:47.111Z,11.86
2023-05-12T19:39:13.918Z,11.79
2023-05-12T19:41:41.208Z,11.75
2023-05-12T19:44:07.972Z,11.82
2023-05-12T19:46:34.681Z,11.62
2023-05-12T19:49:01.460Z,11.62
2023-05-12T19:51:28.615Z,11.44
2023-05-12T19:53:55.346Z,11.42
2023-05-12T19:56:21.977Z,11.39
2023-05-12T19:58:48.682Z,11.30
2023-05-12T20:01:15.487Z,11.30
2023-05-12T20:03:42.234Z,11.25
2023-05-12T20:06:08.940Z,11.22
2023-05-12T20:08:35.700Z,11.23
2023-05-12T20:11:02.490Z,11.18
2023-05-12T20:13:29.164Z,11.20
2023-05-12T20:15:56.098Z,11.19
2023-05-12T20:18:23.824Z,11.15
2023-05-12T20:20:51.032Z,11.20
2023-05-12T20:23:17.669Z,11.10
2023-05-12T20:25:44.346Z,11.16
2023-05-12T20:28:11.768Z,11.04
2023-05-12T20:30:38.738Z,11.04
2023-05-12T20:33:05.630Z,11.01
2023-05-12T20:35:32.541Z,11.01
2023-05-12T20:37:59.435Z,10.89
2023-05-12T20:40:26.191Z,10.79
2023-05-12T20:42:53.011Z,10.77
2023-05-12T20:45:20.199Z,10.70
2023-05-12T20:47:47.225Z,10.73
2023-05-12T20:50:13.996Z,10.67
2023-05-12T20:52:41.523Z,10.54
2023-05-12T20:55:09.350Z,10.55
2023-05-12T20:57:36.186Z,10.51
2023-05-12T21:00:04.005Z,10.43
2023-05-12T21:02:30.741Z,10.50
2023-05-12T21:04:57.624Z,10.54
2023-05-12T21:07:24.263Z,10.55
2023-05-12T21:09:50.910Z,10.38
2023-05-12T21:12:17.654Z,10.34
2023-05-12T21:14:45.578Z,10.29
2023-05-12T21:17:12.387Z,10.29
2023-05-12T21:19:40.010Z,10.23
2023-05-12T21:22:07.832Z,10.22
2023-05-12T21:24:36.532Z,10.08
2023-05-12T21:27:04.132Z,10.10
2023-05-12T21:29:32.003Z,10.03
2023-05-12T21:31:58.915Z,10.02
2023-05-12T21:34:25.962Z,10.04
2023-05-12T21:36:52.556Z,10.01
2023-05-12T21:39:19.155Z,9.96
2023-05-12T21:41:46.067Z,9.84
2023-05-12T21:44:12.843Z,9.82
2023-05-12T21:46:39.815Z,9.80
2023-05-12T21:49:06.607Z,9.80
2023-05-12T21:51:33.633Z,9.71
2023-05-12T21:54:00.775Z,9.70
2023-05-12T21:56:27.382Z,9.68
2023-05-12T21:58:54.212Z,9.63
2023-05-12T22:01:20.935Z,9.63
2023-05-12T22:03:47.547Z,9.77
2023-05-12T22:06:14.222Z,9.64
2023-05-12T22:08:40.833Z,9.57
2023-05-12T22:11:07.497Z,9.57
2023-05-12T22:13:34.171Z,9.58
2023-05-12T22:16:00.837Z,9.53
2023-05-12T22:18:27.611Z,9.56
2023-05-12T22:20:54.320Z,9.56
2023-05-12T22:23:21.390Z,9.49
2023-05-12T22:25:47.965Z,9.46
2023-05-12T22:28:14.567Z,9.42
2023-05-12T22:30:41.990Z,9.43
2023-05-12T22:33:08.852Z,9.30
2023-05-12T22:35:35.597Z,9.21
2023-05-12T22:38:02.238Z,9.23
2023-05-12T22:40:29.217Z,9.25
2023-05-12T22:42:55.829Z,9.35
2023-05-12T22:45:22.399Z,9.44
2023-05-12T22:47:49.090Z,9.44
2023-05-12T22:50:16.109Z,9.49
2023-05-12T22:52:42.740Z,9.50
2023-05-12T22:55:09.881Z,9.57
2023-05-12T22:57:38.638Z,9.59
2023-05-12T23:00:07.066Z,9.62
2023-05-12T23:02:33.857Z,9.63
2023-05-12T23:05:00.598Z,9.65
2023-05-12T23:07:27.402Z,9.63
2023-05-12T23:09:54.979Z,9.68
2023-05-12T23:12:21.692Z,9.46
2023-05-12T23:14:48.479Z,9.61
2023-05-12T23:17:15.252Z,9.61
2023-05-12T23:19:41.992Z,9.68
2023-05-12T23:22:08.710Z,9.64
2023-05-12T23:24:36.220Z,9.62
2023-05-12T23:27:02.904Z,9.56
2023-05-12T23:29:29.824Z,9.59
2023-05-12T23:31:58.873Z,9.62
2023-05-12T23:34:25.893Z,9.58
2023-05-12T23:36:52.553Z,9.60
2023-05-12T23:39:19.280Z,9.63
2023-05-12T23:41:46.043Z,9.64
2023-05-12T23:44:13.071Z,9.68
2023-05-12T23:46:39.944Z,9.70
2023-05-12T23:49:06.694Z,9.71
2023-05-12T23:51:34.428Z,9.69
2023-05-12T23:54:01.298Z,9.74
2023-05-12T23:56:28.144Z,9.72
2023-05-12T23:58:54.880Z,9.75
